KJOT

Joliet Regional Airport

Joliet, Illinois, USA
METAR KJOT 211435Z AUTO 13009KT 5SM BR OVC055 16/15 A3008 RMK AO2 LTG DSNT W P0004 T01550151
Observed Flight Rules
May-21 @ 14:35 UTC (22 minutes ago) Marginal Visual Flight Rules
Wind Visibility Clouds Conditions
130° at 9 knots 5 miles
  • Overcast at 5,500' AGL
  • Mist
Temperatures Readings Precipitation
Current 16°C / 61°F
Dewpoint 15°C / 59°F
Humidity 94%
Altimeter 30.08" Hg
Pressure 1019 hPa
Elevation 177
Current Rain 0.04
METAR KJOT 211435Z AUTO 13009KT 5SM BR OVC055 16/15 A3008 RMK AO2 LTG DSNT W P0004 T01550151
Observed Flight Rules
May-21 @ 14:35 UTC
(22 minutes ago)
MVFR
Wind Visibility
130° at 9 knots 5 miles
Clouds
  • Overcast at 5,500' AGL
Conditions
  • Mist
Temperature Dewpoint
16°C / 61°F 15°C / 59°F
Humidity Altimeter Pressure
94% 30.08" Hg 1019 hPa
Current Rain
0.04